sensor_id;sensor_type;location;lat;lon;timestamp;temperature;humidity
67163;DHT22;54092;53.088;8.850;2024-01-15T00:00:13;2.00;99.90
67163;DHT22;54092;53.088;8.850;2024-01-15T00:02:39;2.00;99.90
67163;DHT22;54092;53.088;8.850;2024-01-15T00:05:04;2.00;99.90
67163;DHT22;54092;53.088;8.850;2024-01-15T00:07:30;2.00;99.90
67163;DHT22;54092;53.088;8.850;2024-01-15T00:09:55;2.00;99.90
67163;DHT22;54092;53.088;8.850;2024-01-15T00:12:21;2.00;99.90
67163;DHT22;54092;53.088;8.850;2024-01-15T00:14:46;2.00;99.90
67163;DHT22;54092;53.088;8.850;2024-01-15T00:17:11;2.00;99.90
67163;DHT22;54092;53.088;8.850;2024-01-15T00:19:37;2.00;99.90
67163;DHT22;54092;53.088;8.850;2024-01-15T00:22:03;2.00;99.90
67163;DHT22;54092;53.088;8.850;2024-01-15T00:24:28;2.00;99.90
67163;DHT22;54092;53.088;8.850;2024-01-15T00:26:54;2.00;99.90
67163;DHT22;54092;53.088;8.850;2024-01-15T00:29:20;2.10;99.90
67163;DHT22;54092;53.088;8.850;2024-01-15T00:31:46;2.10;99.90
67163;DHT22;54092;53.088;8.850;2024-01-15T00:34:11;2.20;99.90
67163;DHT22;54092;53.088;8.850;2024-01-15T00:36:37;2.30;99.90
67163;DHT22;54092;53.088;8.850;2024-01-15T00:39:02;2.30;99.90
67163;DHT22;54092;53.088;8.850;2024-01-15T00:41:30;2.20;99.90
67163;DHT22;54092;53.088;8.850;2024-01-15T00:43:56;2.20;99.90
67163;DHT22;54092;53.088;8.850;2024-01-15T00:46:21;2.20;99.90
67163;DHT22;54092;53.088;8.850;2024-01-15T00:48:46;2.20;99.90
67163;DHT22;54092;53.088;8.850;2024-01-15T00:51:12;2.20;99.90
67163;DHT22;54092;53.088;8.850;2024-01-15T00:53:38;2.20;99.90
67163;DHT22;54092;53.088;8.850;2024-01-15T00:56:03;2.30;99.90
67163;DHT22;54092;53.088;8.850;2024-01-15T00:58:29;2.30;99.90
67163;DHT22;54092;53.088;8.850;2024-01-15T01:00:54;2.30;99.90
67163;DHT22;54092;53.088;8.850;2024-01-15T01:03:20;2.30;99.90
67163;DHT22;54092;53.088;8.850;2024-01-15T01:05:46;2.30;99.90
67163;DHT22;54092;53.088;8.850;2024-01-15T01:08:13;2.30;99.90
67163;DHT22;54092;53.088;8.850;2024-01-15T01:10:38;2.30;99.90
67163;DHT22;54092;53.088;8.850;2024-01-15T01:13:04;2.30;99.90
67163;DHT22;54092;53.088;8.850;2024-01-15T01:15:29;2.30;99.90
67163;DHT22;54092;53.088;8.850;2024-01-15T01:17:55;2.30;99.90
67163;DHT22;54092;53.088;8.850;2024-01-15T01:20:20;2.30;99.90
67163;DHT22;54092;53.088;8.850;2024-01-15T01:22:45;2.30;99.90
67163;DHT22;54092;53.088;8.850;2024-01-15T01:25:11;2.30;99.90
67163;DHT22;54092;53.088;8.850;2024-01-15T01:27:36;2.30;99.90
67163;DHT22;54092;53.088;8.850;2024-01-15T01:30:02;2.30;99.90
67163;DHT22;54092;53.088;8.850;2024-01-15T01:32:27;2.10;99.90
67163;DHT22;54092;53.088;8.850;2024-01-15T01:34:53;2.10;99.90
67163;DHT22;54092;53.088;8.850;2024-01-15T01:37:18;2.00;99.90
67163;DHT22;54092;53.088;8.850;2024-01-15T01:39:44;1.90;99.90
67163;DHT22;54092;53.088;8.850;2024-01-15T01:42:10;1.80;99.90
67163;DHT22;54092;53.088;8.850;2024-01-15T01:44:35;1.80;99.90
67163;DHT22;54092;53.088;8.850;2024-01-15T01:47:01;1.80;99.90
67163;DHT22;54092;53.088;8.850;2024-01-15T01:49:27;1.70;99.90
67163;DHT22;54092;53.088;8.850;2024-01-15T01:51:52;1.80;99.90
67163;DHT22;54092;53.088;8.850;2024-01-15T01:54:19;1.80;99.90
67163;DHT22;54092;53.088;8.850;2024-01-15T01:56:45;1.80;99.90
67163;DHT22;54092;53.088;8.850;2024-01-15T01:59:10;1.80;99.90
67163;DHT22;54092;53.088;8.850;2024-01-15T02:01:36;1.80;99.90
67163;DHT22;54092;53.088;8.850;2024-01-15T02:04:01;1.80;99.90
67163;DHT22;54092;53.088;8.850;2024-01-15T02:06:28;1.70;99.90
67163;DHT22;54092;53.088;8.850;2024-01-15T02:08:54;1.70;99.90
67163;DHT22;54092;53.088;8.850;2024-01-15T02:11:19;1.70;99.90
67163;DHT22;54092;53.088;8.850;2024-01-15T02:13:45;1.70;99.90
67163;DHT22;54092;53.088;8.850;2024-01-15T02:16:10;1.70;99.90
67163;DHT22;54092;53.088;8.850;2024-01-15T02:18:39;1.80;99.90
67163;DHT22;54092;53.088;8.850;2024-01-15T02:21:05;1.80;99.90
67163;DHT22;54092;53.088;8.850;2024-01-15T02:23:30;1.90;99.90
67163;DHT22;54092;53.088;8.850;2024-01-15T02:25:56;1.90;99.90
67163;DHT22;54092;53.088;8.850;2024-01-15T02:28:21;1.90;99.90
67163;DHT22;54092;53.088;8.850;2024-01-15T02:30:47;2.00;99.90
67163;DHT22;54092;53.088;8.850;2024-01-15T02:33:12;2.00;99.90
67163;DHT22;54092;53.088;8.850;2024-01-15T02:35:37;2.10;99.90
67163;DHT22;54092;53.088;8.850;2024-01-15T02:38:03;2.10;99.90
67163;DHT22;54092;53.088;8.850;2024-01-15T02:40:29;2.10;99.90
67163;DHT22;54092;53.088;8.850;2024-01-15T02:42:54;2.10;99.90
67163;DHT22;54092;53.088;8.850;2024-01-15T02:45:20;2.20;99.90
67163;DHT22;54092;53.088;8.850;2024-01-15T02:47:46;2.20;99.90
67163;DHT22;54092;53.088;8.850;2024-01-15T02:50:11;2.20;99.90
67163;DHT22;54092;53.088;8.850;2024-01-15T02:52:36;2.20;99.90
67163;DHT22;54092;53.088;8.850;2024-01-15T02:55:02;2.20;99.90
67163;DHT22;54092;53.088;8.850;2024-01-15T02:57:27;2.20;99.90
67163;DHT22;54092;53.088;8.850;2024-01-15T02:59:53;2.20;99.90
67163;DHT22;54092;53.088;8.850;2024-01-15T03:02:18;2.20;99.90
67163;DHT22;54092;53.088;8.850;2024-01-15T03:04:44;2.20;99.90
67163;DHT22;54092;53.088;8.850;2024-01-15T03:07:10;2.10;99.90
67163;DHT22;54092;53.088;8.850;2024-01-15T03:09:35;2.10;99.90
67163;DHT22;54092;53.088;8.850;2024-01-15T03:12:00;2.10;99.90
67163;DHT22;54092;53.088;8.850;2024-01-15T03:14:26;2.00;99.90
67163;DHT22;54092;53.088;8.850;2024-01-15T03:16:52;2.00;99.90
67163;DHT22;54092;53.088;8.850;2024-01-15T03:19:17;2.00;99.90
67163;DHT22;54092;53.088;8.850;2024-01-15T03:21:43;2.00;99.90
67163;DHT22;54092;53.088;8.850;2024-01-15T03:24:08;2.00;99.90
67163;DHT22;54092;53.088;8.850;2024-01-15T03:26:33;2.00;99.90
67163;DHT22;54092;53.088;8.850;2024-01-15T03:28:59;2.10;99.90
67163;DHT22;54092;53.088;8.850;2024-01-15T03:31:24;2.10;99.90
67163;DHT22;54092;53.088;8.850;2024-01-15T03:33:50;2.10;99.90
67163;DHT22;54092;53.088;8.850;2024-01-15T03:36:15;2.00;99.90
67163;DHT22;54092;53.088;8.850;2024-01-15T03:38:41;2.10;99.90
67163;DHT22;54092;53.088;8.850;2024-01-15T03:41:06;2.00;99.90
67163;DHT22;54092;53.088;8.850;2024-01-15T03:43:32;2.00;99.90
67163;DHT22;54092;53.088;8.850;2024-01-15T03:45:58;2.00;99.90
67163;DHT22;54092;53.088;8.850;2024-01-15T03:48:23;2.00;99.90
67163;DHT22;54092;53.088;8.850;2024-01-15T03:50:49;2.00;99.90
67163;DHT22;54092;53.088;8.850;2024-01-15T03:53:14;2.10;99.90
67163;DHT22;54092;53.088;8.850;2024-01-15T03:55:39;2.10;99.90
67163;DHT22;54092;53.088;8.850;2024-01-15T03:58:05;2.30;99.90
67163;DHT22;54092;53.088;8.850;2024-01-15T04:00:30;2.20;99.90
67163;DHT22;54092;53.088;8.850;2024-01-15T04:02:56;2.20;99.90
67163;DHT22;54092;53.088;8.850;2024-01-15T04:05:21;2.20;99.90
67163;DHT22;54092;53.088;8.850;2024-01-15T04:07:47;2.20;99.90
67163;DHT22;54092;53.088;8.850;2024-01-15T04:10:12;2.20;99.90
67163;DHT22;54092;53.088;8.850;2024-01-15T04:12:38;2.20;99.90
67163;DHT22;54092;53.088;8.850;2024-01-15T04:15:03;2.10;99.90
67163;DHT22;54092;53.088;8.850;2024-01-15T04:17:29;2.10;99.90
67163;DHT22;54092;53.088;8.850;2024-01-15T04:19:54;2.20;99.90
67163;DHT22;54092;53.088;8.850;2024-01-15T04:22:20;2.20;99.90
67163;DHT22;54092;53.088;8.850;2024-01-15T04:24:45;2.30;99.90
67163;DHT22;54092;53.088;8.850;2024-01-15T04:27:10;2.30;99.90
67163;DHT22;54092;53.088;8.850;2024-01-15T04:29:39;2.40;99.90
67163;DHT22;54092;53.088;8.850;2024-01-15T04:32:04;2.30;99.90
67163;DHT22;54092;53.088;8.850;2024-01-15T04:34:30;2.40;99.90
67163;DHT22;54092;53.088;8.850;2024-01-15T04:36:55;2.30;99.90
67163;DHT22;54092;53.088;8.850;2024-01-15T04:39:21;2.30;99.90
67163;DHT22;54092;53.088;8.850;2024-01-15T04:41:47;2.30;99.90
67163;DHT22;54092;53.088;8.850;2024-01-15T04:44:13;2.30;99.90
67163;DHT22;54092;53.088;8.850;2024-01-15T04:46:38;2.30;99.90
67163;DHT22;54092;53.088;8.850;2024-01-15T04:49:03;2.40;99.90
67163;DHT22;54092;53.088;8.850;2024-01-15T04:51:29;2.40;99.90
67163;DHT22;54092;53.088;8.850;2024-01-15T04:53:54;2.40;99.90
67163;DHT22;54092;53.088;8.850;2024-01-15T04:56:20;2.40;99.90
67163;DHT22;54092;53.088;8.850;2024-01-15T04:58:45;2.40;99.90
67163;DHT22;54092;53.088;8.850;2024-01-15T05:01:11;2.40;99.90
67163;DHT22;54092;53.088;8.850;2024-01-15T05:03:37;2.30;99.90
67163;DHT22;54092;53.088;8.850;2024-01-15T05:06:02;2.30;99.90
67163;DHT22;54092;53.088;8.850;2024-01-15T05:08:28;2.20;99.90
67163;DHT22;54092;53.088;8.850;2024-01-15T05:10:53;2.20;99.90
67163;DHT22;54092;53.088;8.850;2024-01-15T05:13:19;2.20;99.90
67163;DHT22;54092;53.088;8.850;2024-01-15T05:15:44;2.20;99.90
67163;DHT22;54092;53.088;8.850;2024-01-15T05:18:09;2.20;99.90
67163;DHT22;54092;53.088;8.850;2024-01-15T05:20:35;2.20;99.90
67163;DHT22;54092;53.088;8.850;2024-01-15T05:23:00;2.20;99.90
67163;DHT22;54092;53.088;8.850;2024-01-15T05:25:26;2.10;99.90
67163;DHT22;54092;53.088;8.850;2024-01-15T05:27:51;2.10;99.90
67163;DHT22;54092;53.088;8.850;2024-01-15T05:30:16;2.20;99.90
67163;DHT22;54092;53.088;8.850;2024-01-15T05:32:42;2.10;99.90
67163;DHT22;54092;53.088;8.850;2024-01-15T05:35:07;2.20;99.90
67163;DHT22;54092;53.088;8.850;2024-01-15T05:37:33;2.20;99.90
67163;DHT22;54092;53.088;8.850;2024-01-15T05:39:58;2.20;99.90
67163;DHT22;54092;53.088;8.850;2024-01-15T05:42:23;2.20;99.90
67163;DHT22;54092;53.088;8.850;2024-01-15T05:44:49;2.10;99.90
67163;DHT22;54092;53.088;8.850;2024-01-15T05:47:14;2.10;99.90
67163;DHT22;54092;53.088;8.850;2024-01-15T05:49:40;2.20;99.90
67163;DHT22;54092;53.088;8.850;2024-01-15T05:52:05;2.20;99.90
67163;DHT22;54092;53.088;8.850;2024-01-15T05:54:31;2.20;99.90
67163;DHT22;54092;53.088;8.850;2024-01-15T05:56:57;2.20;99.90
67163;DHT22;54092;53.088;8.850;2024-01-15T05:59:22;2.20;99.90
67163;DHT22;54092;53.088;8.850;2024-01-15T06:01:47;2.20;99.90
67163;DHT22;54092;53.088;8.850;2024-01-15T06:04:13;2.20;99.90
67163;DHT22;54092;53.088;8.850;2024-01-15T06:06:38;2.20;99.90
67163;DHT22;54092;53.088;8.850;2024-01-15T06:09:04;2.20;99.90
67163;DHT22;54092;53.088;8.850;2024-01-15T06:11:32;2.10;99.90
67163;DHT22;54092;53.088;8.850;2024-01-15T06:13:58;2.10;99.90
67163;DHT22;54092;53.088;8.850;2024-01-15T06:16:24;2.20;99.90
67163;DHT22;54092;53.088;8.850;2024-01-15T06:18:49;2.20;99.90
67163;DHT22;54092;53.088;8.850;2024-01-15T06:21:15;2.10;99.90
67163;DHT22;54092;53.088;8.850;2024-01-15T06:23:41;2.10;99.90
67163;DHT22;54092;53.088;8.850;2024-01-15T06:26:07;2.10;99.90
67163;DHT22;54092;53.088;8.850;2024-01-15T06:28:32;2.10;99.90
67163;DHT22;54092;53.088;8.850;2024-01-15T06:30:57;2.20;99.90
67163;DHT22;54092;53.088;8.850;2024-01-15T06:33:23;2.10;99.90
67163;DHT22;54092;53.088;8.850;2024-01-15T06:35:49;2.10;99.90
67163;DHT22;54092;53.088;8.850;2024-01-15T06:38:14;2.20;99.90
67163;DHT22;54092;53.088;8.850;2024-01-15T06:40:40;2.20;99.90
67163;DHT22;54092;53.088;8.850;2024-01-15T06:43:11;2.20;99.90
67163;DHT22;54092;53.088;8.850;2024-01-15T06:45:36;2.20;99.90
67163;DHT22;54092;53.088;8.850;2024-01-15T06:48:01;2.30;99.90
67163;DHT22;54092;53.088;8.850;2024-01-15T06:50:27;2.30;99.90
67163;DHT22;54092;53.088;8.850;2024-01-15T06:52:52;2.30;99.90
67163;DHT22;54092;53.088;8.850;2024-01-15T06:55:18;2.30;99.90
67163;DHT22;54092;53.088;8.850;2024-01-15T06:57:43;2.30;99.90
67163;DHT22;54092;53.088;8.850;2024-01-15T07:00:09;2.30;99.90
67163;DHT22;54092;53.088;8.850;2024-01-15T07:02:35;2.10;99.90
67163;DHT22;54092;53.088;8.850;2024-01-15T07:05:01;2.10;99.90
67163;DHT22;54092;53.088;8.850;2024-01-15T07:07:26;2.00;99.90
67163;DHT22;54092;53.088;8.850;2024-01-15T07:09:54;2.00;99.90
67163;DHT22;54092;53.088;8.850;2024-01-15T07:12:19;2.00;99.90
67163;DHT22;54092;53.088;8.850;2024-01-15T07:14:45;1.90;99.90
67163;DHT22;54092;53.088;8.850;2024-01-15T07:17:10;1.80;99.90
67163;DHT22;54092;53.088;8.850;2024-01-15T07:19:36;1.70;99.90
67163;DHT22;54092;53.088;8.850;2024-01-15T07:22:01;1.60;99.90
67163;DHT22;54092;53.088;8.850;2024-01-15T07:24:27;1.50;99.90
67163;DHT22;54092;53.088;8.850;2024-01-15T07:26:52;1.40;99.90
67163;DHT22;54092;53.088;8.850;2024-01-15T07:29:18;1.30;99.90
67163;DHT22;54092;53.088;8.850;2024-01-15T07:31:49;1.20;99.90
67163;DHT22;54092;53.088;8.850;2024-01-15T07:34:15;1.20;99.90
67163;DHT22;54092;53.088;8.850;2024-01-15T07:36:41;1.20;99.90
67163;DHT22;54092;53.088;8.850;2024-01-15T07:39:06;1.20;99.90
67163;DHT22;54092;53.088;8.850;2024-01-15T07:41:32;1.20;99.90
67163;DHT22;54092;53.088;8.850;2024-01-15T07:43:57;1.30;99.90
67163;DHT22;54092;53.088;8.850;2024-01-15T07:46:23;1.30;99.90
67163;DHT22;54092;53.088;8.850;2024-01-15T07:48:48;1.40;99.90
67163;DHT22;54092;53.088;8.850;2024-01-15T07:51:16;1.40;99.90
67163;DHT22;54092;53.088;8.850;2024-01-15T07:53:41;1.40;99.90
67163;DHT22;54092;53.088;8.850;2024-01-15T07:56:07;1.40;99.90
67163;DHT22;54092;53.088;8.850;2024-01-15T07:58:32;1.50;99.90
67163;DHT22;54092;53.088;8.850;2024-01-15T08:00:58;1.50;99.90
67163;DHT22;54092;53.088;8.850;2024-01-15T08:03:23;1.50;99.90
67163;DHT22;54092;53.088;8.850;2024-01-15T08:05:48;1.50;99.90
67163;DHT22;54092;53.088;8.850;2024-01-15T08:08:17;1.40;99.90
67163;DHT22;54092;53.088;8.850;2024-01-15T08:10:43;1.40;99.90
67163;DHT22;54092;53.088;8.850;2024-01-15T08:13:09;1.40;99.90
67163;DHT22;54092;53.088;8.850;2024-01-15T08:15:34;1.40;99.90
67163;DHT22;54092;53.088;8.850;2024-01-15T08:18:00;1.50;99.90
67163;DHT22;54092;53.088;8.850;2024-01-15T08:20:25;1.50;99.90
67163;DHT22;54092;53.088;8.850;2024-01-15T08:22:51;1.60;99.90
67163;DHT22;54092;53.088;8.850;2024-01-15T08:25:16;1.60;99.90
67163;DHT22;54092;53.088;8.850;2024-01-15T08:27:42;1.60;99.90
67163;DHT22;54092;53.088;8.850;2024-01-15T08:30:08;1.60;99.90
67163;DHT22;54092;53.088;8.850;2024-01-15T08:32:33;1.70;99.90
67163;DHT22;54092;53.088;8.850;2024-01-15T08:35:01;1.60;99.90
67163;DHT22;54092;53.088;8.850;2024-01-15T08:37:28;1.70;99.90
67163;DHT22;54092;53.088;8.850;2024-01-15T08:39:54;1.70;99.90
67163;DHT22;54092;53.088;8.850;2024-01-15T08:42:20;1.70;99.90
67163;DHT22;54092;53.088;8.850;2024-01-15T08:44:45;1.80;99.90
67163;DHT22;54092;53.088;8.850;2024-01-15T08:47:12;1.80;99.90
67163;DHT22;54092;53.088;8.850;2024-01-15T08:49:37;1.80;99.90
67163;DHT22;54092;53.088;8.850;2024-01-15T08:52:03;1.70;99.90
67163;DHT22;54092;53.088;8.850;2024-01-15T08:54:28;1.80;99.90
67163;DHT22;54092;53.088;8.850;2024-01-15T08:56:54;1.80;99.90
67163;DHT22;54092;53.088;8.850;2024-01-15T08:59:19;1.80;99.90
67163;DHT22;54092;53.088;8.850;2024-01-15T09:01:50;1.70;99.90
67163;DHT22;54092;53.088;8.850;2024-01-15T09:04:15;1.70;99.90
67163;DHT22;54092;53.088;8.850;2024-01-15T09:06:42;1.70;99.90
67163;DHT22;54092;53.088;8.850;2024-01-15T09:09:09;1.70;99.90
67163;DHT22;54092;53.088;8.850;2024-01-15T09:11:35;1.70;99.90
67163;DHT22;54092;53.088;8.850;2024-01-15T09:14:01;1.80;99.90
67163;DHT22;54092;53.088;8.850;2024-01-15T09:16:26;1.90;99.90
67163;DHT22;54092;53.088;8.850;2024-01-15T09:18:52;1.90;99.90
67163;DHT22;54092;53.088;8.850;2024-01-15T09:21:17;1.90;99.90
67163;DHT22;54092;53.088;8.850;2024-01-15T09:23:42;1.90;99.90
67163;DHT22;54092;53.088;8.850;2024-01-15T09:26:08;1.90;99.90
67163;DHT22;54092;53.088;8.850;2024-01-15T09:28:34;2.00;99.90
67163;DHT22;54092;53.088;8.850;2024-01-15T09:30:59;2.00;99.90
67163;DHT22;54092;53.088;8.850;2024-01-15T09:33:25;2.00;99.90
67163;DHT22;54092;53.088;8.850;2024-01-15T09:35:50;2.00;99.90
67163;DHT22;54092;53.088;8.850;2024-01-15T09:38:16;2.10;99.90
67163;DHT22;54092;53.088;8.850;2024-01-15T09:40:43;2.10;99.90
67163;DHT22;54092;53.088;8.850;2024-01-15T09:43:10;2.00;99.90
67163;DHT22;54092;53.088;8.850;2024-01-15T09:45:36;1.90;99.90
67163;DHT22;54092;53.088;8.850;2024-01-15T09:48:02;1.70;99.90
67163;DHT22;54092;53.088;8.850;2024-01-15T09:50:27;1.60;99.90
67163;DHT22;54092;53.088;8.850;2024-01-15T09:52:53;1.60;99.90
67163;DHT22;54092;53.088;8.850;2024-01-15T09:55:19;1.60;99.90
67163;DHT22;54092;53.088;8.850;2024-01-15T09:57:45;1.60;99.90
67163;DHT22;54092;53.088;8.850;2024-01-15T10:00:14;1.60;99.90
67163;DHT22;54092;53.088;8.850;2024-01-15T10:02:40;1.70;99.90
67163;DHT22;54092;53.088;8.850;2024-01-15T10:05:05;1.70;99.90
67163;DHT22;54092;53.088;8.850;2024-01-15T10:07:30;1.70;99.90
67163;DHT22;54092;53.088;8.850;2024-01-15T10:10:00;1.60;99.90
67163;DHT22;54092;53.088;8.850;2024-01-15T10:12:25;1.60;99.90
67163;DHT22;54092;53.088;8.850;2024-01-15T10:14:52;1.70;99.90
67163;DHT22;54092;53.088;8.850;2024-01-15T10:17:17;1.70;99.90
67163;DHT22;54092;53.088;8.850;2024-01-15T10:19:44;1.80;99.90
67163;DHT22;54092;53.088;8.850;2024-01-15T10:22:10;1.80;99.90
67163;DHT22;54092;53.088;8.850;2024-01-15T10:24:36;1.80;99.90
67163;DHT22;54092;53.088;8.850;2024-01-15T10:27:05;1.90;99.90
67163;DHT22;54092;53.088;8.850;2024-01-15T10:29:31;1.90;99.90
67163;DHT22;54092;53.088;8.850;2024-01-15T10:31:57;1.90;99.90
67163;DHT22;54092;53.088;8.850;2024-01-15T10:34:22;2.00;99.90
67163;DHT22;54092;53.088;8.850;2024-01-15T10:36:48;2.00;99.90
67163;DHT22;54092;53.088;8.850;2024-01-15T10:39:17;2.00;99.90
67163;DHT22;54092;53.088;8.850;2024-01-15T10:41:43;2.10;99.90
67163;DHT22;54092;53.088;8.850;2024-01-15T10:44:08;2.20;99.90
67163;DHT22;54092;53.088;8.850;2024-01-15T10:46:33;2.20;99.90
67163;DHT22;54092;53.088;8.850;2024-01-15T10:48:59;2.30;99.90
67163;DHT22;54092;53.088;8.850;2024-01-15T10:51:24;2.40;99.90
67163;DHT22;54092;53.088;8.850;2024-01-15T10:53:51;2.40;99.90
67163;DHT22;54092;53.088;8.850;2024-01-15T10:56:17;2.40;99.90
67163;DHT22;54092;53.088;8.850;2024-01-15T10:58:43;2.40;99.90
67163;DHT22;54092;53.088;8.850;2024-01-15T11:01:09;2.30;99.90
67163;DHT22;54092;53.088;8.850;2024-01-15T11:03:34;2.30;99.90
67163;DHT22;54092;53.088;8.850;2024-01-15T11:06:00;2.20;99.90
67163;DHT22;54092;53.088;8.850;2024-01-15T11:08:25;2.20;99.90
67163;DHT22;54092;53.088;8.850;2024-01-15T11:10:51;2.10;99.90
67163;DHT22;54092;53.088;8.850;2024-01-15T11:16:04;2.00;99.90
67163;DHT22;54092;53.088;8.850;2024-01-15T11:18:37;2.00;99.90
67163;DHT22;54092;53.088;8.850;2024-01-15T11:23:44;2.10;99.90
67163;DHT22;54092;53.088;8.850;2024-01-15T11:26:28;2.20;99.90
67163;DHT22;54092;53.088;8.850;2024-01-15T11:28:54;2.30;99.90
67163;DHT22;54092;53.088;8.850;2024-01-15T11:31:20;2.30;99.90
67163;DHT22;54092;53.088;8.850;2024-01-15T11:33:51;2.40;99.90
67163;DHT22;54092;53.088;8.850;2024-01-15T11:36:17;2.50;99.90
67163;DHT22;54092;53.088;8.850;2024-01-15T11:38:42;2.70;99.90
67163;DHT22;54092;53.088;8.850;2024-01-15T11:41:14;2.80;99.90
67163;DHT22;54092;53.088;8.850;2024-01-15T11:43:41;2.70;99.90
67163;DHT22;54092;53.088;8.850;2024-01-15T11:46:08;2.70;99.90
67163;DHT22;54092;53.088;8.850;2024-01-15T11:48:41;2.60;99.90
67163;DHT22;54092;53.088;8.850;2024-01-15T11:51:07;2.60;99.90
67163;DHT22;54092;53.088;8.850;2024-01-15T11:53:36;2.60;99.90
67163;DHT22;54092;53.088;8.850;2024-01-15T11:56:02;2.60;99.90
67163;DHT22;54092;53.088;8.850;2024-01-15T11:58:28;2.60;99.90
67163;DHT22;54092;53.088;8.850;2024-01-15T12:00:53;2.70;99.90
67163;DHT22;54092;53.088;8.850;2024-01-15T12:03:20;2.80;99.90
67163;DHT22;54092;53.088;8.850;2024-01-15T12:05:46;2.70;99.90
67163;DHT22;54092;53.088;8.850;2024-01-15T12:08:11;2.70;99.90
67163;DHT22;54092;53.088;8.850;2024-01-15T12:10:40;2.60;99.90
67163;DHT22;54092;53.088;8.850;2024-01-15T12:15:34;2.50;99.90
67163;DHT22;54092;53.088;8.850;2024-01-15T12:18:00;2.50;99.90
67163;DHT22;54092;53.088;8.850;2024-01-15T12:20:27;2.70;99.90
67163;DHT22;54092;53.088;8.850;2024-01-15T12:22:53;2.70;99.90
67163;DHT22;54092;53.088;8.850;2024-01-15T12:25:20;2.90;99.90
67163;DHT22;54092;53.088;8.850;2024-01-15T12:27:45;3.10;99.90
67163;DHT22;54092;53.088;8.850;2024-01-15T12:30:12;3.30;99.90
67163;DHT22;54092;53.088;8.850;2024-01-15T12:32:37;3.20;99.90
67163;DHT22;54092;53.088;8.850;2024-01-15T12:35:03;3.70;99.90
67163;DHT22;54092;53.088;8.850;2024-01-15T12:37:29;3.90;99.90
67163;DHT22;54092;53.088;8.850;2024-01-15T12:39:55;3.90;99.90
67163;DHT22;54092;53.088;8.850;2024-01-15T12:42:20;3.60;99.90
67163;DHT22;54092;53.088;8.850;2024-01-15T12:44:46;3.30;99.90
67163;DHT22;54092;53.088;8.850;2024-01-15T12:47:11;3.20;99.90
67163;DHT22;54092;53.088;8.850;2024-01-15T12:49:38;3.10;99.90
67163;DHT22;54092;53.088;8.850;2024-01-15T12:52:07;3.00;99.90
67163;DHT22;54092;53.088;8.850;2024-01-15T12:54:33;2.90;99.90
67163;DHT22;54092;53.088;8.850;2024-01-15T12:56:58;2.80;99.90
67163;DHT22;54092;53.088;8.850;2024-01-15T12:59:24;2.70;99.90
67163;DHT22;54092;53.088;8.850;2024-01-15T13:01:49;2.70;99.90
67163;DHT22;54092;53.088;8.850;2024-01-15T13:04:21;2.70;99.90
67163;DHT22;54092;53.088;8.850;2024-01-15T13:06:47;2.70;99.90
67163;DHT22;54092;53.088;8.850;2024-01-15T13:09:12;2.60;99.90
67163;DHT22;54092;53.088;8.850;2024-01-15T13:11:37;2.40;99.90
67163;DHT22;54092;53.088;8.850;2024-01-15T13:14:03;2.40;99.90
67163;DHT22;54092;53.088;8.850;2024-01-15T13:16:28;2.20;99.90
67163;DHT22;54092;53.088;8.850;2024-01-15T13:18:54;2.20;99.90
67163;DHT22;54092;53.088;8.850;2024-01-15T13:21:21;2.20;99.90
67163;DHT22;54092;53.088;8.850;2024-01-15T13:23:47;2.20;99.90
67163;DHT22;54092;53.088;8.850;2024-01-15T13:26:12;2.20;99.90
67163;DHT22;54092;53.088;8.850;2024-01-15T13:28:38;2.10;99.90
67163;DHT22;54092;53.088;8.850;2024-01-15T13:31:04;2.00;99.90
67163;DHT22;54092;53.088;8.850;2024-01-15T13:33:30;1.80;99.90
67163;DHT22;54092;53.088;8.850;2024-01-15T13:35:55;1.70;99.90
67163;DHT22;54092;53.088;8.850;2024-01-15T13:38:20;1.60;99.90
67163;DHT22;54092;53.088;8.850;2024-01-15T13:40:46;1.60;99.90
67163;DHT22;54092;53.088;8.850;2024-01-15T13:43:11;1.60;99.90
67163;DHT22;54092;53.088;8.850;2024-01-15T13:45:39;1.60;99.90
67163;DHT22;54092;53.088;8.850;2024-01-15T13:48:05;1.60;99.90
67163;DHT22;54092;53.088;8.850;2024-01-15T13:50:31;1.60;99.90
67163;DHT22;54092;53.088;8.850;2024-01-15T13:52:56;1.60;99.90
67163;DHT22;54092;53.088;8.850;2024-01-15T13:55:23;1.70;99.90
67163;DHT22;54092;53.088;8.850;2024-01-15T13:57:49;1.60;99.90
67163;DHT22;54092;53.088;8.850;2024-01-15T14:00:14;1.70;99.90
67163;DHT22;54092;53.088;8.850;2024-01-15T14:02:44;1.70;99.90
67163;DHT22;54092;53.088;8.850;2024-01-15T14:05:09;1.70;99.90
67163;DHT22;54092;53.088;8.850;2024-01-15T14:07:40;1.80;99.90
67163;DHT22;54092;53.088;8.850;2024-01-15T14:10:07;1.70;99.90
67163;DHT22;54092;53.088;8.850;2024-01-15T14:12:33;1.80;99.90
67163;DHT22;54092;53.088;8.850;2024-01-15T14:14:59;1.80;99.90
67163;DHT22;54092;53.088;8.850;2024-01-15T14:17:24;1.80;99.90
67163;DHT22;54092;53.088;8.850;2024-01-15T14:19:50;1.80;99.90
67163;DHT22;54092;53.088;8.850;2024-01-15T14:22:15;1.80;99.90
67163;DHT22;54092;53.088;8.850;2024-01-15T14:24:40;1.80;99.90
67163;DHT22;54092;53.088;8.850;2024-01-15T14:27:06;1.80;99.90
67163;DHT22;54092;53.088;8.850;2024-01-15T14:29:32;1.80;99.90
67163;DHT22;54092;53.088;8.850;2024-01-15T14:31:58;1.80;99.90
67163;DHT22;54092;53.088;8.850;2024-01-15T14:34:24;1.90;99.90
67163;DHT22;54092;53.088;8.850;2024-01-15T14:36:51;1.80;99.90
67163;DHT22;54092;53.088;8.850;2024-01-15T14:39:19;1.80;99.90
67163;DHT22;54092;53.088;8.850;2024-01-15T14:41:44;1.90;99.90
67163;DHT22;54092;53.088;8.850;2024-01-15T14:44:10;1.90;99.90
67163;DHT22;54092;53.088;8.850;2024-01-15T14:46:37;1.90;99.90
67163;DHT22;54092;53.088;8.850;2024-01-15T14:49:03;1.90;99.90
67163;DHT22;54092;53.088;8.850;2024-01-15T14:51:28;1.90;99.90
67163;DHT22;54092;53.088;8.850;2024-01-15T14:53:54;2.00;99.90
67163;DHT22;54092;53.088;8.850;2024-01-15T14:56:20;2.00;99.90
67163;DHT22;54092;53.088;8.850;2024-01-15T14:58:45;2.00;99.90
67163;DHT22;54092;53.088;8.850;2024-01-15T15:01:11;1.90;99.90
67163;DHT22;54092;53.088;8.850;2024-01-15T15:03:36;1.90;99.90
67163;DHT22;54092;53.088;8.850;2024-01-15T15:06:02;1.90;99.90
67163;DHT22;54092;53.088;8.850;2024-01-15T15:08:27;1.90;99.90
67163;DHT22;54092;53.088;8.850;2024-01-15T15:10:52;1.90;99.90
67163;DHT22;54092;53.088;8.850;2024-01-15T15:13:18;1.90;99.90
67163;DHT22;54092;53.088;8.850;2024-01-15T15:15:44;1.90;99.90
67163;DHT22;54092;53.088;8.850;2024-01-15T15:18:09;1.90;99.90
67163;DHT22;54092;53.088;8.850;2024-01-15T15:20:35;1.90;99.90
67163;DHT22;54092;53.088;8.850;2024-01-15T15:23:00;1.90;99.90
67163;DHT22;54092;53.088;8.850;2024-01-15T15:25:26;1.80;99.90
67163;DHT22;54092;53.088;8.850;2024-01-15T15:27:51;1.80;99.90
67163;DHT22;54092;53.088;8.850;2024-01-15T15:30:17;1.80;99.90
67163;DHT22;54092;53.088;8.850;2024-01-15T15:32:42;1.80;99.90
67163;DHT22;54092;53.088;8.850;2024-01-15T15:35:08;1.80;99.90
67163;DHT22;54092;53.088;8.850;2024-01-15T15:37:34;1.70;99.90
67163;DHT22;54092;53.088;8.850;2024-01-15T15:40:00;1.80;99.90
67163;DHT22;54092;53.088;8.850;2024-01-15T15:42:25;1.80;99.90